Time;durP1;ratioP1;P1;durP2;ratioP2;P2;SDS_P1;SDS_P2;PMS_P1;PMS_P2;Temp;Humidity;BMP_temperature;BMP_pressure;BME280_temperature;BME280_humidity;BME280_pressure;Samples;Min_cycle;Max_cycle;Signal;HPM_P1;HPM_P2
2021/12/16 00:01:47;;;;;;;41.75;26.13;;;;;;;;;;5059686;28;20075;-86
2021/12/16 00:10:11;;;;;;;55.63;28.45;;;;;;;;;;5026791;28;20055;-85
2021/12/16 00:32:17;;;;;;;45.25;27.20;;;;;;;;;;5058404;28;20041;-85
2021/12/16 00:34:44;;;;;;;47.55;27.73;;;;;;;;;;5058001;28;20055;-85
2021/12/16 00:37:10;;;;;;;48.58;27.88;;;;;;;;;;5058092;28;20041;-85
2021/12/16 00:39:36;;;;;;;46.83;27.20;;;;;;;;;;5041012;28;20049;-85
2021/12/16 00:42:10;;;;;;;43.80;26.52;;;;;;;;;;5056764;28;20036;-85
2021/12/16 00:45:03;;;;;;;46.33;27.02;;;;;;;;;;5057417;28;20040;-85
2021/12/16 00:47:34;;;;;;;48.13;25.50;;;;;;;;;;5056429;28;20040;-85
2021/12/16 00:50:19;;;;;;;44.50;24.75;;;;;;;;;;5039702;28;20044;-85
2021/12/16 00:55:47;;;;;;;48.75;27.52;;;;;;;;;;5055227;28;20129;-85
2021/12/16 00:58:19;;;;;;;48.53;26.85;;;;;;;;;;5038307;28;20037;-85
2021/12/16 01:00:54;;;;;;;50.75;29.75;;;;;;;;;;5060408;28;20028;-85
2021/12/16 01:03:31;;;;;;;44.50;27.35;;;;;;;;;;5080359;28;20079;-85
2021/12/16 01:06:16;;;;;;;44.65;26.10;;;;;;;;;;5057265;28;20110;-85
2021/12/16 01:33:51;;;;;;;47.00;27.25;;;;;;;;;;5058372;28;20055;-85
2021/12/16 01:36:38;;;;;;;53.88;29.60;;;;;;;;;;5057363;28;20048;-85
2021/12/16 01:42:16;;;;;;;42.65;26.58;;;;;;;;;;5057517;28;20040;-85
2021/12/16 01:50:04;;;;;;;50.25;28.77;;;;;;;;;;5057538;28;20044;-84
2021/12/16 01:55:32;;;;;;;49.63;29.15;;;;;;;;;;5057702;28;20047;-84
2021/12/16 01:58:10;;;;;;;46.40;29.10;;;;;;;;;;5040602;28;20048;-84
2021/12/16 02:00:57;;;;;;;53.80;29.35;;;;;;;;;;5040524;28;20566;-84
2021/12/16 02:03:39;;;;;;;47.00;28.05;;;;;;;;;;5057027;28;20070;-84
2021/12/16 02:08:44;;;;;;;56.38;33.47;;;;;;;;;;5057139;28;20131;-85
2021/12/16 02:35:57;;;;;;;52.90;29.58;;;;;;;;;;5056651;28;20047;-84
2021/12/16 02:38:27;;;;;;;48.17;29.55;;;;;;;;;;5056800;28;20075;-84
2021/12/16 02:40:54;;;;;;;48.15;28.95;;;;;;;;;;5056925;28;20829;-84
2021/12/16 02:48:48;;;;;;;51.05;29.10;;;;;;;;;;5030425;28;20056;-84
2021/12/16 02:51:16;;;;;;;49.55;28.90;;;;;;;;;;5060140;28;20454;-84
2021/12/16 02:53:43;;;;;;;43.88;26.98;;;;;;;;;;5060846;28;20123;-84
2021/12/16 02:56:09;;;;;;;40.80;27.13;;;;;;;;;;5059570;28;20037;-84
2021/12/16 02:58:36;;;;;;;43.72;27.70;;;;;;;;;;5059794;28;20111;-85
2021/12/16 03:01:09;;;;;;;49.15;29.30;;;;;;;;;;5060036;28;20044;-84
2021/12/16 03:03:38;;;;;;;47.38;28.95;;;;;;;;;;5059328;28;20071;-84
2021/12/16 03:06:04;;;;;;;45.47;29.17;;;;;;;;;;5060053;28;20044;-84
2021/12/16 03:08:32;;;;;;;48.58;29.80;;;;;;;;;;5060902;28;20492;-84
2021/12/16 03:11:16;;;;;;;50.17;27.75;;;;;;;;;;5060083;28;20049;-84
2021/12/16 03:14:04;;;;;;;;;;;;;;;;;;5060719;28;20048;-85
2021/12/16 03:19:12;;;;;;;49.60;28.27;;;;;;;;;;5059283;28;20083;-84
2021/12/16 03:21:44;;;;;;;46.88;29.00;;;;;;;;;;5042303;28;20048;-85
2021/12/16 03:24:41;;;;;;;54.70;31.15;;;;;;;;;;5059670;28;20068;-85
2021/12/16 03:30:02;;;;;;;53.67;29.83;;;;;;;;;;5058885;28;20060;-85
2021/12/16 03:32:51;;;;;;;55.95;29.60;;;;;;;;;;5059253;28;20139;-85
2021/12/16 03:35:29;;;;;;;42.97;27.98;;;;;;;;;;5058594;28;20447;-85
2021/12/16 03:37:58;;;;;;;52.08;29.70;;;;;;;;;;5058516;28;20040;-85
2021/12/16 03:40:25;;;;;;;44.42;27.33;;;;;;;;;;5059171;28;20135;-85
2021/12/16 03:42:55;;;;;;;57.22;31.42;;;;;;;;;;5058167;28;20526;-85
2021/12/16 03:48:10;;;;;;;55.10;31.40;;;;;;;;;;5059263;28;20427;-84
2021/12/16 03:50:36;;;;;;;51.47;30.75;;;;;;;;;;5042100;28;20046;-85
2021/12/16 03:53:03;;;;;;;50.65;30.10;;;;;;;;;;5058863;28;20399;-85
2021/12/16 03:55:29;;;;;;;52.65;30.35;;;;;;;;;;5058479;28;20041;-85
2021/12/16 03:57:55;;;;;;;60.83;31.63;;;;;;;;;;5042196;28;20075;-85
2021/12/16 04:00:25;;;;;;;47.55;28.42;;;;;;;;;;5041749;28;20036;-85
2021/12/16 04:02:51;;;;;;;50.78;30.45;;;;;;;;;;5042210;28;20084;-85
2021/12/16 04:05:18;;;;;;;52.42;30.63;;;;;;;;;;5058138;28;20051;-85
2021/12/16 04:07:44;;;;;;;53.63;31.50;;;;;;;;;;5042024;28;20124;-85
2021/12/16 04:10:15;;;;;;;50.58;30.00;;;;;;;;;;5041667;28;20094;-85
2021/12/16 04:12:41;;;;;;;54.17;31.25;;;;;;;;;;5041843;28;20042;-85
2021/12/16 04:15:08;;;;;;;57.15;32.00;;;;;;;;;;5057663;28;20100;-85
2021/12/16 04:17:34;;;;;;;57.00;30.95;;;;;;;;;;5058477;28;20103;-85
2021/12/16 04:20:01;;;;;;;57.83;30.90;;;;;;;;;;5058272;28;20044;-85
2021/12/16 04:22:31;;;;;;;51.45;29.70;;;;;;;;;;5041401;28;20040;-85
2021/12/16 04:25:00;;;;;;;56.22;31.67;;;;;;;;;;5038837;28;20047;-85
2021/12/16 04:27:26;;;;;;;56.70;30.08;;;;;;;;;;5055552;28;20051;-85
2021/12/16 04:29:56;;;;;;;54.55;30.30;;;;;;;;;;5038990;28;20032;-84
2021/12/16 04:32:22;;;;;;;52.75;29.15;;;;;;;;;;5055294;28;20032;-84
2021/12/16 04:34:48;;;;;;;51.35;28.88;;;;;;;;;;5055458;28;20483;-84
2021/12/16 04:37:14;;;;;;;54.55;31.30;;;;;;;;;;5077296;28;20052;-86
2021/12/16 04:39:41;;;;;;;57.45;29.92;;;;;;;;;;5081423;28;20040;-85
2021/12/16 04:42:08;;;;;;;60.90;31.50;;;;;;;;;;5058509;28;20033;-85
2021/12/16 04:44:34;;;;;;;56.30;30.92;;;;;;;;;;5055114;28;20045;-85
2021/12/16 04:47:00;;;;;;;52.33;30.38;;;;;;;;;;5042506;28;20032;-84
2021/12/16 04:49:27;;;;;;;55.92;29.88;;;;;;;;;;5047847;28;20040;-84
2021/12/16 04:51:55;;;;;;;52.97;29.90;;;;;;;;;;5061122;28;20123;-85
2021/12/16 04:54:23;;;;;;;59.53;30.67;;;;;;;;;;5057987;28;20037;-84
2021/12/16 04:56:50;;;;;;;55.55;30.98;;;;;;;;;;5054792;28;20049;-83
2021/12/16 04:59:17;;;;;;;52.50;30.30;;;;;;;;;;5038762;28;20044;-84
2021/12/16 05:01:51;;;;;;;51.85;29.38;;;;;;;;;;5037306;28;20104;-84
2021/12/16 05:04:17;;;;;;;;;;;;;;;;;;5050319;28;20021;-84
2021/12/16 05:06:43;;;;;;;49.33;28.98;;;;;;;;;;5074244;28;20010;-84
2021/12/16 05:09:12;;;;;;;56.22;30.35;;;;;;;;;;5049350;28;20385;-84
2021/12/16 05:11:38;;;;;;;52.88;29.98;;;;;;;;;;5053708;28;20064;-85
2021/12/16 05:14:06;;;;;;;55.28;30.30;;;;;;;;;;5053934;28;20041;-85
2021/12/16 05:16:33;;;;;;;50.40;28.90;;;;;;;;;;5066281;28;20719;-85
2021/12/16 05:18:59;;;;;;;50.83;28.55;;;;;;;;;;5057311;28;20048;-85
2021/12/16 05:21:54;;;;;;;57.67;30.20;;;;;;;;;;5056964;28;20036;-84
2021/12/16 05:26:39;;;;;;;51.30;28.15;;;;;;;;;;5057572;28;20149;-85
2021/12/16 05:29:05;;;;;;;53.63;29.17;;;;;;;;;;5055730;28;20552;-85
2021/12/16 05:31:31;;;;;;;54.33;30.40;;;;;;;;;;5053917;28;20044;-85
2021/12/16 05:33:58;;;;;;;54.67;29.95;;;;;;;;;;5059882;28;20434;-85
2021/12/16 05:36:25;;;;;;;48.80;28.27;;;;;;;;;;5071400;28;20499;-85
2021/12/16 05:38:51;;;;;;;51.67;29.08;;;;;;;;;;5074518;28;20067;-86
2021/12/16 05:41:19;;;;;;;59.28;31.58;;;;;;;;;;5074546;28;20686;-86
2021/12/16 05:43:49;;;;;;;57.35;30.15;;;;;;;;;;5073712;28;20051;-86
2021/12/16 05:46:16;;;;;;;51.42;29.35;;;;;;;;;;5035840;28;20039;-86
2021/12/16 05:48:45;;;;;;;53.83;29.70;;;;;;;;;;5043528;28;20031;-86
2021/12/16 05:51:13;;;;;;;54.50;30.25;;;;;;;;;;5043396;28;20430;-86
2021/12/16 05:53:40;;;;;;;47.80;28.92;;;;;;;;;;5053729;28;20040;-85
2021/12/16 05:56:06;;;;;;;51.33;28.83;;;;;;;;;;5053656;28;20067;-86
2021/12/16 05:58:33;;;;;;;55.15;30.08;;;;;;;;;;5037071;28;20032;-85
2021/12/16 06:01:01;;;;;;;50.17;29.27;;;;;;;;;;5050562;28;20491;-85
2021/12/16 06:03:28;;;;;;;59.08;30.90;;;;;;;;;;5061996;28;20080;-85
2021/12/16 06:05:54;;;;;;;56.88;32.00;;;;;;;;;;5054652;28;20048;-85
2021/12/16 06:08:20;;;;;;;55.33;29.25;;;;;;;;;;5058174;28;20045;-85
2021/12/16 06:13:39;;;;;;;52.40;29.92;;;;;;;;;;5058931;28;20041;-85
2021/12/16 06:27:44;;;;;;;49.13;29.98;;;;;;;;;;5055342;28;20047;-86
2021/12/16 06:30:12;;;;;;;50.83;29.70;;;;;;;;;;5052884;28;20043;-86
2021/12/16 06:32:39;;;;;;;48.30;29.23;;;;;;;;;;5044245;28;20024;-86
2021/12/16 06:35:05;;;;;;;47.08;30.08;;;;;;;;;;5048847;28;20078;-86
2021/12/16 06:37:51;;;;;;;52.88;30.75;;;;;;;;;;5057049;28;20037;-85
2021/12/16 06:40:48;;;;;;;51.05;29.10;;;;;;;;;;5041064;28;20051;-85
2021/12/16 06:43:32;;;;;;;47.78;28.02;;;;;;;;;;5053172;28;20055;-86
2021/12/16 06:46:31;;;;;;;47.78;26.70;;;;;;;;;;5021448;28;20040;-86
2021/12/16 06:49:19;;;;;;;50.03;30.42;;;;;;;;;;4960457;28;20515;-87
2021/12/16 06:55:27;;;;;;;50.75;29.40;;;;;;;;;;4962657;28;20079;-87
2021/12/16 06:57:55;;;;;;;61.10;32.28;;;;;;;;;;5020440;28;20056;-87
2021/12/16 07:00:31;;;;;;;54.38;30.55;;;;;;;;;;5036844;28;20127;-87
2021/12/16 07:03:02;;;;;;;61.63;34.22;;;;;;;;;;5052393;28;20453;-87
2021/12/16 07:05:31;;;;;;;118.93;62.85;;;;;;;;;;5060266;28;20495;-87
2021/12/16 07:07:58;;;;;;;82.85;45.65;;;;;;;;;;5056407;28;20049;-87
2021/12/16 07:10:34;;;;;;;93.05;48.58;;;;;;;;;;5040117;28;20538;-87
2021/12/16 07:13:40;;;;;;;51.60;28.88;;;;;;;;;;5040141;28;20048;-87
2021/12/16 07:16:42;;;;;;;53.20;29.13;;;;;;;;;;5050710;28;20037;-86
2021/12/16 07:22:30;;;;;;;55.25;33.67;;;;;;;;;;5059744;28;20519;-85
2021/12/16 07:24:56;;;;;;;67.03;41.83;;;;;;;;;;5035804;28;20132;-80
2021/12/16 07:30:46;;;;;;;53.40;30.92;;;;;;;;;;5053946;28;20063;-85
2021/12/16 07:33:17;;;;;;;53.90;33.05;;;;;;;;;;5035226;28;20037;-85
2021/12/16 07:36:20;;;;;;;57.50;32.90;;;;;;;;;;5053081;28;20089;-84
2021/12/16 07:38:47;;;;;;;52.67;29.65;;;;;;;;;;5018591;28;20047;-84
2021/12/16 07:41:13;;;;;;;62.75;33.40;;;;;;;;;;5035096;28;20040;-84
2021/12/16 07:43:53;;;;;;;57.58;33.50;;;;;;;;;;5034548;28;20044;-85
2021/12/16 07:46:19;;;;;;;56.95;32.88;;;;;;;;;;5035563;28;20095;-84
2021/12/16 07:48:45;;;;;;;55.80;30.60;;;;;;;;;;5036645;28;20443;-84
2021/12/16 07:51:11;;;;;;;47.28;29.73;;;;;;;;;;5020176;28;20086;-85
2021/12/16 07:53:37;;;;;;;50.85;28.48;;;;;;;;;;5036330;28;20040;-86
2021/12/16 07:56:04;;;;;;;53.40;30.02;;;;;;;;;;5036206;28;20450;-84
2021/12/16 07:58:30;;;;;;;56.17;29.75;;;;;;;;;;5059345;28;20474;-84
2021/12/16 08:04:28;;;;;;;45.55;27.20;;;;;;;;;;5072339;28;20541;-85
2021/12/16 08:06:55;;;;;;;54.58;30.52;;;;;;;;;;5042232;28;20045;-84
2021/12/16 08:09:21;;;;;;;54.60;29.98;;;;;;;;;;5055437;28;20123;-85
2021/12/16 08:11:49;;;;;;;51.65;28.52;;;;;;;;;;5075917;28;20050;-86
2021/12/16 08:14:15;;;;;;;53.58;30.98;;;;;;;;;;5082079;28;20042;-86
2021/12/16 08:16:41;;;;;;;65.20;35.50;;;;;;;;;;5101619;28;20042;-86
2021/12/16 08:19:08;;;;;;;67.07;36.33;;;;;;;;;;5078507;28;20054;-85
2021/12/16 08:21:34;;;;;;;74.20;40.58;;;;;;;;;;5075947;28;20043;-85
2021/12/16 08:24:02;;;;;;;64.55;36.65;;;;;;;;;;5059005;28;20121;-85
2021/12/16 08:26:29;;;;;;;72.72;40.28;;;;;;;;;;5075732;28;20514;-85
2021/12/16 08:28:55;;;;;;;69.90;38.03;;;;;;;;;;5075551;28;20039;-85
2021/12/16 08:31:21;;;;;;;65.22;36.75;;;;;;;;;;5059121;28;20415;-85
2021/12/16 08:33:47;;;;;;;72.20;38.97;;;;;;;;;;5075619;28;20032;-85
2021/12/16 08:36:14;;;;;;;82.43;41.67;;;;;;;;;;5075944;28;20036;-85
2021/12/16 08:38:47;;;;;;;77.22;37.47;;;;;;;;;;5059090;28;20040;-86
2021/12/16 08:41:21;;;;;;;91.88;44.75;;;;;;;;;;5082567;28;20059;-85
2021/12/16 10:04:52;;;;;;;48.40;25.83;;;;;;;;;;5062297;28;20035;-84
2021/12/16 10:07:23;;;;;;;37.88;24.02;;;;;;;;;;5037209;28;20041;-84
2021/12/16 10:09:50;;;;;;;45.40;24.15;;;;;;;;;;5061422;28;20118;-84
2021/12/16 10:12:21;;;;;;;39.75;23.20;;;;;;;;;;5051131;28;20039;-84
2021/12/16 10:15:03;;;;;;;41.42;23.88;;;;;;;;;;5060129;28;20130;-85
2021/12/16 10:17:32;;;;;;;44.08;24.67;;;;;;;;;;5061791;28;20040;-85
2021/12/16 10:20:01;;;;;;;47.35;25.27;;;;;;;;;;5077571;28;20150;-84
2021/12/16 10:22:40;;;;;;;45.40;25.10;;;;;;;;;;5093779;28;20048;-86
2021/12/16 10:25:26;;;;;;;53.78;26.55;;;;;;;;;;5058094;28;20119;-85
2021/12/16 10:28:26;;;;;;;51.88;25.33;;;;;;;;;;5058948;28;20082;-85
2021/12/16 10:31:05;;;;;;;51.33;24.90;;;;;;;;;;5092496;28;20048;-84
2021/12/16 10:33:55;;;;;;;44.67;24.42;;;;;;;;;;5058594;28;20044;-85
2021/12/16 10:36:37;;;;;;;45.53;23.92;;;;;;;;;;5094093;28;20044;-85
2021/12/16 10:39:22;;;;;;;51.47;23.83;;;;;;;;;;5059444;28;20082;-85
2021/12/16 10:42:06;;;;;;;41.45;23.23;;;;;;;;;;5054977;28;20503;-85
2021/12/16 10:44:43;;;;;;;42.97;23.60;;;;;;;;;;5073665;28;20430;-85
2021/12/16 10:47:28;;;;;;;45.80;23.75;;;;;;;;;;5058137;28;20036;-85
2021/12/16 10:50:18;;;;;;;39.72;22.58;;;;;;;;;;5090858;28;20048;-84
2021/12/16 10:56:01;;;;;;;39.25;22.90;;;;;;;;;;5094928;28;20040;-85
2021/12/16 10:58:52;;;;;;;40.40;22.75;;;;;;;;;;5060916;28;20403;-84
2021/12/16 11:01:34;;;;;;;37.88;22.35;;;;;;;;;;5061139;28;20114;-85
2021/12/16 11:04:00;;;;;;;37.25;21.58;;;;;;;;;;5060994;28;20418;-85
2021/12/16 11:06:34;;;;;;;35.92;21.42;;;;;;;;;;5055372;28;20074;-85
2021/12/16 11:09:19;;;;;;;39.17;22.15;;;;;;;;;;5041630;28;20446;-85
2021/12/16 11:11:45;;;;;;;36.80;23.00;;;;;;;;;;5057665;28;20516;-85
2021/12/16 11:14:11;;;;;;;38.13;22.20;;;;;;;;;;5040711;28;20036;-85
2021/12/16 11:16:40;;;;;;;39.53;22.20;;;;;;;;;;5040825;28;20044;-85
2021/12/16 11:19:07;;;;;;;38.17;22.95;;;;;;;;;;5057581;28;20123;-84
2021/12/16 11:21:40;;;;;;;38.53;23.90;;;;;;;;;;5040975;28;20119;-85
2021/12/16 11:24:25;;;;;;;46.97;24.25;;;;;;;;;;5040676;28;20047;-85
2021/12/16 11:26:51;;;;;;;40.33;22.35;;;;;;;;;;5040852;28;20150;-86
2021/12/16 11:29:17;;;;;;;43.03;23.25;;;;;;;;;;5040662;28;20072;-85
2021/12/16 11:31:47;;;;;;;34.88;20.83;;;;;;;;;;5041072;28;20056;-85
2021/12/16 11:34:14;;;;;;;44.00;22.10;;;;;;;;;;5056751;28;20045;-85
2021/12/16 11:36:43;;;;;;;39.40;21.73;;;;;;;;;;5057155;28;20496;-84
2021/12/16 11:39:11;;;;;;;41.80;21.48;;;;;;;;;;5057217;28;20100;-85
2021/12/16 11:41:48;;;;;;;43.67;22.30;;;;;;;;;;5056759;28;20075;-85
2021/12/16 11:44:17;;;;;;;49.83;23.75;;;;;;;;;;5057093;28;20055;-85
2021/12/16 11:47:17;;;;;;;44.67;22.38;;;;;;;;;;5063845;28;20102;-86
2021/12/16 11:50:04;;;;;;;42.65;21.05;;;;;;;;;;5039583;28;20120;-86
2021/12/16 11:52:32;;;;;;;43.03;21.33;;;;;;;;;;5065282;28;20052;-84
2021/12/16 11:55:06;;;;;;;40.90;21.25;;;;;;;;;;5058541;28;20036;-84
2021/12/16 11:57:32;;;;;;;47.70;22.13;;;;;;;;;;5042154;28;20048;-85
2021/12/16 12:00:01;;;;;;;42.10;21.35;;;;;;;;;;5040303;28;20040;-85
2021/12/16 12:02:37;;;;;;;47.53;22.45;;;;;;;;;;5040310;28;20072;-84
2021/12/16 12:05:19;;;;;;;43.70;21.95;;;;;;;;;;5038902;28;20067;-84
2021/12/16 12:08:08;;;;;;;45.03;22.52;;;;;;;;;;5057645;28;20040;-84
2021/12/16 12:10:35;;;;;;;46.25;22.42;;;;;;;;;;5039931;28;20480;-85
2021/12/16 12:13:06;;;;;;;40.72;22.27;;;;;;;;;;5042685;28;20044;-86
2021/12/16 12:15:33;;;;;;;45.38;23.77;;;;;;;;;;5065096;28;20036;-86
2021/12/16 12:18:00;;;;;;;68.60;33.60;;;;;;;;;;5057899;28;20146;-84
2021/12/16 12:20:30;;;;;;;44.97;26.35;;;;;;;;;;5041376;28;20127;-84
2021/12/16 12:22:58;;;;;;;50.42;26.00;;;;;;;;;;5057817;28;20040;-85
2021/12/16 12:25:27;;;;;;;71.97;38.33;;;;;;;;;;5057332;28;20051;-84
2021/12/16 12:27:53;;;;;;;52.88;26.63;;;;;;;;;;5040460;28;20080;-85
2021/12/16 12:30:20;;;;;;;41.10;22.60;;;;;;;;;;5040063;28;20044;-85
2021/12/16 12:32:48;;;;;;;53.30;23.88;;;;;;;;;;5040472;28;20049;-85
2021/12/16 12:35:17;;;;;;;79.28;43.22;;;;;;;;;;5040450;28;20044;-85
2021/12/16 12:37:45;;;;;;;69.40;34.72;;;;;;;;;;5039822;28;20032;-84
2021/12/16 12:40:14;;;;;;;63.03;33.00;;;;;;;;;;5040765;28;20044;-85
2021/12/16 12:42:40;;;;;;;49.05;23.73;;;;;;;;;;5056425;28;20044;-84
2021/12/16 12:45:08;;;;;;;49.42;23.20;;;;;;;;;;5056655;28;20131;-84
2021/12/16 12:47:35;;;;;;;46.95;23.15;;;;;;;;;;5056450;28;20062;-84
2021/12/16 12:50:10;;;;;;;49.00;25.20;;;;;;;;;;5040429;28;20037;-84
2021/12/16 12:52:52;;;;;;;55.80;25.60;;;;;;;;;;5055979;28;20048;-84
2021/12/16 12:55:28;;;;;;;52.38;22.15;;;;;;;;;;5040019;28;20087;-84
2021/12/16 12:58:01;;;;;;;46.85;23.27;;;;;;;;;;5057161;28;20059;-85
2021/12/16 13:00:47;;;;;;;45.67;22.17;;;;;;;;;;5041263;28;20054;-85
2021/12/16 13:03:18;;;;;;;56.22;23.10;;;;;;;;;;5041426;28;20096;-84
2021/12/16 13:05:52;;;;;;;48.55;21.23;;;;;;;;;;5041390;28;20513;-85
2021/12/16 13:08:24;;;;;;;62.35;33.50;;;;;;;;;;5041972;28;20044;-84
2021/12/16 13:10:51;;;;;;;55.30;27.25;;;;;;;;;;5058076;28;20129;-84
2021/12/16 13:15:55;;;;;;;44.22;24.25;;;;;;;;;;5055817;28;20048;-86
2021/12/16 13:24:09;;;;;;;50.70;23.10;;;;;;;;;;5055193;28;20044;-85
2021/12/16 13:26:39;;;;;;;52.40;24.30;;;;;;;;;;5054675;28;20144;-85
2021/12/16 13:29:10;;;;;;;52.28;23.42;;;;;;;;;;5055754;28;20040;-85
2021/12/16 13:31:44;;;;;;;41.08;22.50;;;;;;;;;;5039097;28;20048;-85
2021/12/16 13:34:29;;;;;;;44.50;21.60;;;;;;;;;;5055392;28;20381;-84
2021/12/16 13:36:57;;;;;;;42.97;22.17;;;;;;;;;;5039106;28;20095;-85
2021/12/16 13:39:25;;;;;;;45.13;24.02;;;;;;;;;;5040045;28;20044;-85
2021/12/16 13:41:55;;;;;;;53.03;24.02;;;;;;;;;;5056417;28;20123;-85
2021/12/16 13:44:34;;;;;;;46.60;21.70;;;;;;;;;;5039360;28;20491;-84
2021/12/16 14:02:52;;;;;;;42.53;20.10;;;;;;;;;;5056321;28;20044;-83
2021/12/16 14:05:31;;;;;;;;;;;;;;;;;;4976091;28;20438;-84
2021/12/16 14:08:01;;;;;;;40.53;19.85;;;;;;;;;;4959968;28;19917;-84
2021/12/16 14:10:46;;;;;;;46.28;22.35;;;;;;;;;;5017701;28;20040;-85
2021/12/16 14:16:22;;;;;;;41.47;18.73;;;;;;;;;;5055731;28;20037;-83
2021/12/16 14:36:42;;;;;;;53.63;20.45;;;;;;;;;;5058076;28;20051;-84
2021/12/16 14:42:39;;;;;;;50.53;21.70;;;;;;;;;;5057779;28;20044;-84
2021/12/16 14:49:48;;;;;;;77.00;23.63;;;;;;;;;;5058286;28;20076;-84
2021/12/16 14:52:14;;;;;;;91.50;23.55;;;;;;;;;;5057649;28;20048;-84
2021/12/16 14:54:49;;;;;;;101.45;27.02;;;;;;;;;;5041765;28;20385;-84
2021/12/16 14:57:20;;;;;;;50.63;23.23;;;;;;;;;;5041863;28;20044;-84
2021/12/16 14:59:46;;;;;;;44.25;22.30;;;;;;;;;;5041987;28;20072;-84
2021/12/16 15:02:14;;;;;;;73.07;24.55;;;;;;;;;;5057999;28;20091;-84
2021/12/16 15:04:40;;;;;;;63.97;25.92;;;;;;;;;;5058668;28;20144;-85
2021/12/16 15:07:09;;;;;;;45.38;21.73;;;;;;;;;;5041558;28;20071;-85
2021/12/16 15:09:38;;;;;;;45.20;21.70;;;;;;;;;;5058057;28;20076;-84
2021/12/16 15:12:24;;;;;;;106.97;44.70;;;;;;;;;;5058210;28;20047;-85
2021/12/16 15:36:53;;;;;;;67.53;27.77;;;;;;;;;;5056749;28;20488;-82
2021/12/16 15:44:50;;;;;;;69.40;25.00;;;;;;;;;;5058184;28;20055;-84
2021/12/16 15:47:17;;;;;;;83.43;23.83;;;;;;;;;;5081952;28;20061;-85
2021/12/16 15:49:44;;;;;;;70.75;23.75;;;;;;;;;;5057751;28;20045;-83
2021/12/16 15:52:10;;;;;;;47.38;21.77;;;;;;;;;;5047205;28;20431;-83
2021/12/16 15:54:36;;;;;;;70.00;25.13;;;;;;;;;;5020041;28;20539;-84
2021/12/16 15:57:03;;;;;;;80.70;27.85;;;;;;;;;;5042335;28;20132;-84
2021/12/16 15:59:29;;;;;;;85.93;27.48;;;;;;;;;;5047911;28;20091;-84
2021/12/16 16:01:56;;;;;;;90.03;25.02;;;;;;;;;;5068450;28;20131;-84
2021/12/16 16:04:24;;;;;;;57.53;22.10;;;;;;;;;;5076536;28;20044;-83
2021/12/16 16:06:54;;;;;;;67.97;22.10;;;;;;;;;;5076273;28;20391;-84
2021/12/16 16:09:20;;;;;;;58.70;21.30;;;;;;;;;;5059642;28;20054;-84
2021/12/16 16:11:50;;;;;;;47.63;19.23;;;;;;;;;;5060421;28;20701;-85
2021/12/16 16:14:17;;;;;;;60.30;17.88;;;;;;;;;;5076477;28;20443;-84
2021/12/16 16:16:49;;;;;;;58.78;18.52;;;;;;;;;;5060070;28;20040;-85
2021/12/16 16:19:20;;;;;;;52.85;18.17;;;;;;;;;;5059505;28;20046;-86
2021/12/16 16:21:48;;;;;;;28.25;15.95;;;;;;;;;;5065243;28;20032;-86
2021/12/16 16:24:20;;;;;;;49.15;17.83;;;;;;;;;;5054870;28;20495;-84
2021/12/16 16:26:55;;;;;;;41.55;17.55;;;;;;;;;;5059089;28;20043;-86
2021/12/16 16:29:22;;;;;;;43.20;18.65;;;;;;;;;;5059867;28;20128;-88
2021/12/16 16:31:49;;;;;;;40.70;17.35;;;;;;;;;;5075329;28;20047;-86
2021/12/16 16:34:17;;;;;;;37.95;16.80;;;;;;;;;;5058818;28;20067;-87
2021/12/16 16:36:44;;;;;;;36.72;16.63;;;;;;;;;;5059140;28;20105;-84
2021/12/16 16:39:12;;;;;;;40.08;17.27;;;;;;;;;;5060497;28;20101;-83
2021/12/16 16:41:41;;;;;;;27.58;15.00;;;;;;;;;;5060229;28;20044;-84
2021/12/16 16:44:12;;;;;;;35.53;15.73;;;;;;;;;;5059502;28;20040;-84
2021/12/16 16:46:46;;;;;;;30.85;15.02;;;;;;;;;;5042077;28;20395;-85
2021/12/16 17:29:59;;;;;;;42.22;18.10;;;;;;;;;;5074680;28;20055;-88
2021/12/16 17:33:00;;;;;;;49.05;19.83;;;;;;;;;;5030479;28;20046;-86
2021/12/16 17:36:03;;;;;;;46.55;18.98;;;;;;;;;;5058203;28;20047;-87
2021/12/16 17:38:55;;;;;;;38.20;16.65;;;;;;;;;;5049521;28;20074;-87
2021/12/16 17:52:12;;;;;;;37.85;18.48;;;;;;;;;;5093559;28;20039;-83
2021/12/16 18:01:52;;;;;;;42.25;18.92;;;;;;;;;;4995591;28;20149;-84
2021/12/16 18:04:21;;;;;;;50.25;23.67;;;;;;;;;;4973759;28;20125;-84
2021/12/16 18:10:42;;;;;;;47.22;24.20;;;;;;;;;;4886668;29;20096;-86
2021/12/16 18:13:27;;;;;;;55.63;24.35;;;;;;;;;;4862318;29;20046;-87
2021/12/16 18:19:47;;;;;;;39.42;19.80;;;;;;;;;;4855786;29;20040;-86
2021/12/16 18:23:02;;;;;;;37.47;17.77;;;;;;;;;;4804905;29;20150;-86
2021/12/16 18:32:44;;;;;;;35.17;15.90;;;;;;;;;;4799611;29;20130;-86
2021/12/16 18:39:25;;;;;;;38.78;17.15;;;;;;;;;;4809694;29;20063;-87
2021/12/16 19:53:56;;;;;;;43.05;18.88;;;;;;;;;;5083312;28;20162;-87
2021/12/16 20:24:00;;;;;;;57.65;21.95;;;;;;;;;;4991421;23;20038;-34
2021/12/16 20:26:31;;;;;;;64.40;25.25;;;;;;;;;;5049257;28;20195;-31
2021/12/16 20:29:01;;;;;;;74.03;26.45;;;;;;;;;;5041397;28;20161;-30
2021/12/16 20:31:34;;;;;;;59.83;24.58;;;;;;;;;;5029224;28;20047;-29
2021/12/16 20:34:07;;;;;;;97.40;30.92;;;;;;;;;;5030944;28;20052;-28
2021/12/16 20:36:36;;;;;;;69.57;24.10;;;;;;;;;;5014467;28;20605;-31
2021/12/16 20:39:25;;;;;;;83.70;27.48;;;;;;;;;;5032323;28;20045;-30
2021/12/16 20:41:53;;;;;;;86.57;27.27;;;;;;;;;;5002440;28;20135;-29
2021/12/16 20:44:24;;;;;;;62.50;24.30;;;;;;;;;;5032407;28;20038;-30
2021/12/16 20:46:51;;;;;;;81.68;26.42;;;;;;;;;;5077919;22;20044;-31
2021/12/16 20:49:20;;;;;;;90.45;44.47;;;;;;;;;;5053637;28;20469;-31
2021/12/16 20:51:53;;;;;;;101.45;33.40;;;;;;;;;;5063518;28;20082;-30
2021/12/16 20:54:21;;;;;;;79.78;28.50;;;;;;;;;;5071640;28;20123;-32
2021/12/16 20:56:48;;;;;;;61.33;26.35;;;;;;;;;;5071693;28;20082;-31
2021/12/16 20:59:16;;;;;;;71.32;25.00;;;;;;;;;;5071284;28;20110;-31
2021/12/16 21:01:51;;;;;;;86.72;30.67;;;;;;;;;;5071662;28;20396;-32
2021/12/16 21:04:18;;;;;;;87.32;32.70;;;;;;;;;;5054095;28;20044;-30
2021/12/16 21:09:14;;;;;;;97.97;36.42;;;;;;;;;;5065957;28;20072;-31
2021/12/16 21:11:40;;;;;;;99.35;30.70;;;;;;;;;;5080253;28;20044;-34
2021/12/16 21:14:07;;;;;;;106.82;32.22;;;;;;;;;;5071150;28;20075;-29
2021/12/16 21:16:33;;;;;;;86.97;26.80;;;;;;;;;;5057078;23;20041;-31
2021/12/16 21:18:59;;;;;;;81.20;27.83;;;;;;;;;;5046496;28;20464;-31
2021/12/16 21:21:25;;;;;;;65.35;25.42;;;;;;;;;;5040173;28;20041;-33
2021/12/16 21:23:51;;;;;;;65.20;27.67;;;;;;;;;;5038606;28;20075;-33
2021/12/16 21:26:17;;;;;;;85.70;26.23;;;;;;;;;;5038376;28;20048;-32
2021/12/16 21:28:44;;;;;;;105.35;31.38;;;;;;;;;;5047569;28;20383;-33
2021/12/16 21:31:11;;;;;;;102.28;32.97;;;;;;;;;;5043468;28;20037;-33
2021/12/16 21:33:57;;;;;;;70.63;27.88;;;;;;;;;;5021124;28;20044;-30
2021/12/16 21:36:26;;;;;;;90.03;30.42;;;;;;;;;;5049952;22;20063;-31
2021/12/16 21:38:53;;;;;;;113.10;39.38;;;;;;;;;;5049847;28;20053;-31
2021/12/16 21:41:21;;;;;;;105.60;34.47;;;;;;;;;;5051822;28;20053;-32
2021/12/16 21:43:47;;;;;;;178.13;54.50;;;;;;;;;;5051821;28;20053;-31
2021/12/16 21:46:14;;;;;;;116.65;37.65;;;;;;;;;;5051290;28;20126;-31
2021/12/16 21:48:41;;;;;;;101.55;33.08;;;;;;;;;;5051904;28;20517;-30
2021/12/16 21:51:07;;;;;;;174.25;57.30;;;;;;;;;;5051356;28;20073;-30
2021/12/16 21:53:33;;;;;;;144.00;40.08;;;;;;;;;;5051528;28;20478;-31
2021/12/16 21:58:29;;;;;;;102.35;30.45;;;;;;;;;;5069702;28;20123;-31
2021/12/16 22:00:55;;;;;;;97.50;28.63;;;;;;;;;;5071073;28;20040;-32
2021/12/16 22:03:24;;;;;;;113.97;35.53;;;;;;;;;;5071464;28;20051;-31
2021/12/16 22:05:54;;;;;;;138.30;40.30;;;;;;;;;;5071345;28;20036;-30
2021/12/16 22:08:28;;;;;;;113.57;37.95;;;;;;;;;;5071129;28;20041;-29
2021/12/16 22:10:55;;;;;;;258.83;100.13;;;;;;;;;;5071055;28;20041;-31
2021/12/16 22:13:24;;;;;;;143.88;58.65;;;;;;;;;;5071046;28;20108;-29
2021/12/16 22:15:50;;;;;;;119.88;39.00;;;;;;;;;;5070024;28;20032;-31
2021/12/16 22:18:18;;;;;;;99.53;33.88;;;;;;;;;;5067500;28;20129;-30
2021/12/16 22:20:45;;;;;;;130.93;34.03;;;;;;;;;;5067391;28;20400;-31
2021/12/16 22:23:13;;;;;;;206.52;72.63;;;;;;;;;;5067552;28;20076;-30
2021/12/16 22:25:39;;;;;;;110.70;44.35;;;;;;;;;;5065311;28;20119;-32
2021/12/16 22:28:06;;;;;;;113.75;44.30;;;;;;;;;;5064365;28;20075;-31
2021/12/16 22:30:33;;;;;;;88.15;32.65;;;;;;;;;;5065035;28;20532;-30
2021/12/16 22:32:59;;;;;;;104.72;32.45;;;;;;;;;;5069400;28;20064;-32
2021/12/16 22:35:27;;;;;;;152.20;52.15;;;;;;;;;;5070174;28;20040;-31
2021/12/16 22:37:53;;;;;;;155.00;42.95;;;;;;;;;;5070255;28;20048;-29
2021/12/16 22:40:26;;;;;;;105.07;41.20;;;;;;;;;;5069952;28;20401;-29
2021/12/16 22:42:52;;;;;;;90.70;32.30;;;;;;;;;;5070047;28;20094;-32
2021/12/16 22:45:18;;;;;;;87.97;30.20;;;;;;;;;;5051652;28;20036;-29